Batemans Bay, New South Wales

7:00 AM AEST on September 25, 2016 (GMT +1000)
Gillan Grove | | Change Station

Elev 62 ft 35.85 °S, 150.17 °E | Updated 12 seconds ago

Mostly Cloudy
Mostly Cloudy
56.1 °F
Feels Like 56.1 °F
N
0.0
Wind Variable Wind from SE
Gusts 0.0 mph

Today
High -- | Low -- °F
--% Chance of Precip.
Yesterday
High -- | Low -- °F
Precip. -- in
Pressure 29.68 in
Visibility 6.2 miles
Clouds Mostly Cloudy 10500 ft
Dew Point 53 °F
Humidity 90%
Rainfall 0.00 in
Snow Depth Not available.
5:44 AM 5:58 PM
Waning Crescent, 34% visible
METAR YSNW 242000Z AUTO 31004KT 9999 // BKN105 14/12 Q1005
Pressure 29.68 in
Visibility 6.2 miles
Clouds Mostly Cloudy 10500 ft
Dew Point 53 °F
Humidity 90%
Rainfall 0.00 in
Snow Depth Not available.
5:44 AM 5:58 PM
Waning Crescent, 34% visible
METAR YSNW 242000Z AUTO 31004KT 9999 // BKN105 14/12 Q1005

10-Day Weather Forecast

Almanac

Astronomy

Sep. 25, 2016 Rise Set
Actual Time
Civil Twilight
Nautical Twilight
Astronomical Twilight
Moon
Length of Visible Light
Length of Day
Tomorrow will be .
, % of the Moon is Illuminated

Today's Extremes

Country Highs Country Lows

Community

WunderPhotos

Upload Photos

1,941,423 photos uploaded!

WunderBlog® & News

Nearby

Air Quality

  Air Quality AQ Index Pollutant
Not available.

Snow Depth

Station Depth Elevation

Earthquake Activity

City Distance Mag. Time & Date
Minimum magnitude displayed is 2.5.

Coastal Water Temperatures

Place Temperature

Stations

Nearby Weather Stations

Station Location Temp. Windchill Dew Point Humidity Wind Precip. Elev Updated Type